createdAt,value
2022-12-23T00:01:13.723Z,82.03
2022-12-23T00:03:40.744Z,81.95
2022-12-23T00:06:13.821Z,82.12
2022-12-23T00:08:41.501Z,81.53
2022-12-23T00:11:14.183Z,81.93
2022-12-23T00:13:59.500Z,81.57
2022-12-23T00:16:26.717Z,81.66
2022-12-23T00:18:54.426Z,81.71
2022-12-23T00:21:22.170Z,81.73
2022-12-23T00:23:51.295Z,82.04
2022-12-23T00:26:24.752Z,81.73
2022-12-23T00:28:52.387Z,81.87
2022-12-23T00:31:19.935Z,82.06
2022-12-23T00:33:49.360Z,82.00
2022-12-23T00:36:27.988Z,81.99
2022-12-23T00:39:15.141Z,82.28
2022-12-23T00:42:00.418Z,82.29
2022-12-23T00:44:27.662Z,82.21
2022-12-23T00:46:54.493Z,82.12
2022-12-23T00:49:40.762Z,82.28
2022-12-23T00:52:10.476Z,82.38
2022-12-23T00:54:37.183Z,81.87
2022-12-23T00:57:04.362Z,81.90
2022-12-23T00:59:31.114Z,82.25
2022-12-23T01:02:16.344Z,81.90
2022-12-23T01:05:01.610Z,82.23
2022-12-23T01:07:28.343Z,82.06
2022-12-23T01:09:55.096Z,81.81
2022-12-23T01:12:21.764Z,81.91
2022-12-23T01:14:48.729Z,82.35
2022-12-23T01:17:15.671Z,81.64
2022-12-23T01:19:42.480Z,82.04
2022-12-23T01:22:09.510Z,82.00
2022-12-23T01:24:36.202Z,82.00
2022-12-23T01:27:02.901Z,82.16
2022-12-23T01:29:29.877Z,82.44
2022-12-23T01:31:56.917Z,82.04
2022-12-23T01:34:23.745Z,82.38
2022-12-23T01:36:50.513Z,82.45
2022-12-23T01:39:17.324Z,82.09
2022-12-23T01:42:03.018Z,81.98
2022-12-23T01:44:54.149Z,81.92
2022-12-23T01:47:23.566Z,82.24
2022-12-23T01:49:53.396Z,82.41
2022-12-23T01:52:20.283Z,82.24
2022-12-23T01:54:47.935Z,82.10
2022-12-23T01:57:14.751Z,81.90
2022-12-23T02:00:09.576Z,82.22
2022-12-23T02:02:56.016Z,81.91
2022-12-23T02:05:24.152Z,82.51
2022-12-23T02:08:12.108Z,82.45
2022-12-23T02:10:56.446Z,82.17
2022-12-23T02:14:17.356Z,82.56
2022-12-23T02:16:50.798Z,82.14
2022-12-23T02:19:57.299Z,82.57
2022-12-23T02:22:52.351Z,82.46
2022-12-23T02:25:56.586Z,82.72
2022-12-23T02:28:47.695Z,82.38
2022-12-23T02:31:22.207Z,82.58
2022-12-23T02:34:20.293Z,82.67
2022-12-23T02:37:00.126Z,82.17
2022-12-23T02:39:46.019Z,82.67
2022-12-23T02:42:17.819Z,82.43
2022-12-23T02:45:07.990Z,82.24
2022-12-23T02:47:46.707Z,82.31
2022-12-23T02:50:27.155Z,82.20
2022-12-23T02:52:57.910Z,82.35
2022-12-23T02:55:27.890Z,82.49
2022-12-23T02:57:57.187Z,82.30
2022-12-23T03:00:24.019Z,82.48
2022-12-23T03:02:51.028Z,82.59
2022-12-23T03:05:28.316Z,82.43
2022-12-23T03:07:59.655Z,82.54
2022-12-23T03:10:54.425Z,82.71
2022-12-23T03:13:31.487Z,82.70
2022-12-23T03:16:24.259Z,82.77
2022-12-23T03:19:09.054Z,82.42
2022-12-23T03:21:48.393Z,82.42
2022-12-23T03:24:24.537Z,82.51
2022-12-23T03:27:00.505Z,82.65
2022-12-23T03:29:43.599Z,82.50
2022-12-23T03:32:14.008Z,82.36
2022-12-23T03:34:45.387Z,82.95
2022-12-23T03:37:14.755Z,82.90
2022-12-23T03:39:48.410Z,82.81
2022-12-23T03:42:28.720Z,82.71
2022-12-23T03:45:36.227Z,82.92
2022-12-23T03:47:55.368Z,82.90
2022-12-23T03:50:24.778Z,82.96
2022-12-23T03:52:56.302Z,82.85
2022-12-23T03:55:32.845Z,82.95
2022-12-23T03:58:12.025Z,82.47
2022-12-23T04:00:47.455Z,83.06
2022-12-23T04:03:29.013Z,82.57
2022-12-23T04:05:59.915Z,82.55
2022-12-23T04:08:32.490Z,82.52
2022-12-23T04:11:00.550Z,82.94
2022-12-23T04:13:28.633Z,82.68
2022-12-23T04:15:57.455Z,83.07
2022-12-23T04:18:24.244Z,82.68
2022-12-23T04:20:50.896Z,82.83
2022-12-23T04:23:17.811Z,82.78
2022-12-23T04:25:44.500Z,82.65
2022-12-23T04:28:11.350Z,82.49
2022-12-23T04:30:38.322Z,82.78
2022-12-23T04:33:05.405Z,82.65
2022-12-23T04:35:32.101Z,82.81
2022-12-23T04:37:58.785Z,82.73
2022-12-23T04:40:25.549Z,82.56
2022-12-23T04:42:52.152Z,82.84
2022-12-23T04:45:18.985Z,83.02
2022-12-23T04:47:45.654Z,82.63
2022-12-23T04:50:16.504Z,82.79
2022-12-23T04:52:44.233Z,82.82
2022-12-23T04:55:11.727Z,82.53
2022-12-23T04:57:38.563Z,82.68
2022-12-23T05:00:06.143Z,82.72
2022-12-23T05:02:32.953Z,82.69
2022-12-23T05:04:59.652Z,82.63
2022-12-23T05:07:26.383Z,82.72
2022-12-23T05:09:53.673Z,82.40
2022-12-23T05:12:20.362Z,82.49
2022-12-23T05:14:47.285Z,82.79
2022-12-23T05:17:14.111Z,82.42
2022-12-23T05:19:40.770Z,82.91
2022-12-23T05:22:07.528Z,82.50
2022-12-23T05:24:34.575Z,82.47
2022-12-23T05:27:01.222Z,82.77
2022-12-23T05:29:28.201Z,82.67
2022-12-23T05:31:54.981Z,82.77
2022-12-23T05:34:21.717Z,82.30
2022-12-23T05:36:48.566Z,82.47
2022-12-23T05:39:15.363Z,82.59
2022-12-23T05:41:42.008Z,83.06
2022-12-23T05:44:08.760Z,82.69
2022-12-23T05:46:35.651Z,83.03
2022-12-23T05:49:02.532Z,82.90
2022-12-23T05:51:29.279Z,82.68
2022-12-23T05:53:55.952Z,82.41
2022-12-23T05:56:22.665Z,82.65
2022-12-23T05:58:49.496Z,82.47
2022-12-23T06:01:16.252Z,82.58
2022-12-23T06:03:43.129Z,82.31
2022-12-23T06:06:09.966Z,82.73
2022-12-23T06:08:36.713Z,82.56
2022-12-23T06:11:06.642Z,82.45
2022-12-23T06:13:33.439Z,82.62
2022-12-23T06:16:00.123Z,82.59
2022-12-23T06:18:26.730Z,82.38
2022-12-23T06:20:53.363Z,82.35
2022-12-23T06:23:20.198Z,82.44
2022-12-23T06:25:46.869Z,82.62
2022-12-23T06:28:13.671Z,82.73
2022-12-23T06:30:40.313Z,82.40
2022-12-23T06:33:07.029Z,82.66
2022-12-23T06:35:33.815Z,82.36
2022-12-23T06:38:00.725Z,82.60
2022-12-23T06:40:29.227Z,82.71
2022-12-23T06:42:56.137Z,82.57
2022-12-23T06:45:22.852Z,82.66
2022-12-23T06:47:49.542Z,82.50
2022-12-23T06:50:16.517Z,82.52
2022-12-23T06:52:43.476Z,82.42
2022-12-23T06:55:10.117Z,82.49
2022-12-23T06:57:36.900Z,82.50
2022-12-23T07:00:05.140Z,82.88
2022-12-23T07:02:33.026Z,82.59
2022-12-23T07:04:59.847Z,82.64
2022-12-23T07:07:26.718Z,82.46
2022-12-23T07:09:53.333Z,82.59
2022-12-23T07:12:20.126Z,82.83
2022-12-23T07:14:46.901Z,82.67
2022-12-23T07:17:13.622Z,82.67
2022-12-23T07:19:41.830Z,82.47
2022-12-23T07:22:10.290Z,82.38
2022-12-23T07:24:37.750Z,82.57
2022-12-23T07:27:04.986Z,82.74
2022-12-23T07:29:31.792Z,82.83
2022-12-23T07:31:58.588Z,82.57
2022-12-23T07:34:25.439Z,82.90
2022-12-23T07:36:52.198Z,82.80
2022-12-23T07:39:18.847Z,82.54
2022-12-23T07:41:45.798Z,82.79
2022-12-23T07:44:12.759Z,82.70
2022-12-23T07:46:39.771Z,82.70
2022-12-23T07:49:06.808Z,82.59
2022-12-23T07:51:33.569Z,82.59
2022-12-23T07:54:00.301Z,82.69
2022-12-23T07:56:27.403Z,82.50
2022-12-23T07:58:54.628Z,82.67
2022-12-23T08:01:22.019Z,83.06
2022-12-23T08:03:49.100Z,82.61
2022-12-23T08:06:16.708Z,82.85
2022-12-23T08:08:45.611Z,82.96
2022-12-23T08:11:13.870Z,82.66
2022-12-23T08:13:42.087Z,82.70
2022-12-23T08:16:09.990Z,82.76
2022-12-23T08:18:39.280Z,83.24
2022-12-23T08:21:14.945Z,83.03
2022-12-23T08:23:43.626Z,82.77
2022-12-23T08:26:12.944Z,83.15
2022-12-23T08:28:41.509Z,82.88
2022-12-23T08:31:09.670Z,82.91
2022-12-23T08:33:38.212Z,83.23
2022-12-23T08:36:06.867Z,82.98
2022-12-23T08:38:33.887Z,83.31
2022-12-23T08:41:01.045Z,82.87
2022-12-23T08:43:33.610Z,83.19
2022-12-23T08:46:02.541Z,82.88
2022-12-23T08:48:29.303Z,82.97
2022-12-23T08:50:56.000Z,83.08
2022-12-23T08:53:22.884Z,83.09
2022-12-23T08:55:49.631Z,82.91
2022-12-23T08:58:16.269Z,83.20
2022-12-23T09:00:43.254Z,83.46
2022-12-23T09:03:10.158Z,83.06
2022-12-23T09:05:41.960Z,83.57
2022-12-23T09:08:09.217Z,83.00
2022-12-23T09:10:44.098Z,83.55
2022-12-23T09:13:15.004Z,83.12
2022-12-23T09:15:45.671Z,83.23
2022-12-23T09:18:12.726Z,83.62
2022-12-23T09:20:39.462Z,83.13
2022-12-23T09:23:06.651Z,83.10
2022-12-23T09:25:35.421Z,83.07
2022-12-23T09:28:02.455Z,83.30
2022-12-23T09:30:29.387Z,83.37
2022-12-23T09:32:56.583Z,83.02
2022-12-23T09:35:23.392Z,83.40
2022-12-23T09:37:50.121Z,83.48
2022-12-23T09:40:21.301Z,82.98
2022-12-23T09:43:06.999Z,83.19
2022-12-23T09:45:40.475Z,83.28
2022-12-23T09:48:14.993Z,83.42
2022-12-23T09:50:43.220Z,83.27
2022-12-23T09:53:20.982Z,83.59
2022-12-23T09:56:16.129Z,83.25
2022-12-23T09:59:04.753Z,83.07
2022-12-23T10:01:44.567Z,83.42
2022-12-23T10:04:20.642Z,83.25
2022-12-23T10:06:56.365Z,83.04
2022-12-23T10:09:27.862Z,82.97
2022-12-23T10:45:56.789Z,83.25
2022-12-23T10:48:48.841Z,83.21
2022-12-23T10:51:25.197Z,83.33
2022-12-23T10:54:24.085Z,82.79
2022-12-23T10:56:50.934Z,82.80
2022-12-23T10:59:24.020Z,82.80
2022-12-23T11:01:55.419Z,83.16
2022-12-23T11:04:39.708Z,82.92
2022-12-23T11:07:42.997Z,82.88
2022-12-23T11:10:03.337Z,82.89
2022-12-23T11:12:42.581Z,82.65
2022-12-23T11:15:28.462Z,83.08
2022-12-23T11:18:14.271Z,82.96
2022-12-23T11:20:43.109Z,83.10
2022-12-23T11:23:28.697Z,83.20
2022-12-23T11:26:06.342Z,82.88
2022-12-23T11:28:37.107Z,82.80
2022-12-23T11:31:11.791Z,83.30
2022-12-23T11:33:45.497Z,82.86
2022-12-23T11:36:12.129Z,82.71
2022-12-23T11:38:52.504Z,82.85
2022-12-23T11:41:28.046Z,82.97
2022-12-23T11:44:17.721Z,82.64
2022-12-23T11:46:44.574Z,82.81
2022-12-23T11:49:27.536Z,83.02
2022-12-23T11:52:05.207Z,82.83
2022-12-23T11:54:33.857Z,82.90
2022-12-23T11:57:04.260Z,82.70
2022-12-23T11:59:38.482Z,82.78
2022-12-23T12:02:21.811Z,82.98
2022-12-23T12:04:57.247Z,83.11
2022-12-23T12:07:24.296Z,82.78
2022-12-23T12:09:51.407Z,83.10
2022-12-23T12:12:21.471Z,83.11
2022-12-23T12:14:51.491Z,82.92
2022-12-23T12:17:25.668Z,82.79
2022-12-23T12:20:00.591Z,82.72
2022-12-23T12:22:41.900Z,83.04
2022-12-23T12:25:18.129Z,82.83
2022-12-23T12:27:52.624Z,82.88
2022-12-23T12:30:20.931Z,83.07
2022-12-23T12:33:15.921Z,82.98
2022-12-23T12:35:53.975Z,82.93
2022-12-23T12:38:30.188Z,82.86
2022-12-23T12:41:16.423Z,83.01
2022-12-23T12:44:18.511Z,82.89
2022-12-23T12:46:52.424Z,82.55
2022-12-23T12:49:22.060Z,82.59
2022-12-23T12:52:04.155Z,83.04
2022-12-23T12:54:37.727Z,82.70
2022-12-23T12:57:04.680Z,83.02
2022-12-23T12:59:36.957Z,83.01
2022-12-23T13:02:28.730Z,82.58
2022-12-23T13:05:07.754Z,82.67
2022-12-23T13:07:46.911Z,82.70
2022-12-23T13:10:25.050Z,82.76
2022-12-23T13:13:21.057Z,82.86
2022-12-23T13:15:52.189Z,82.93
2022-12-23T13:18:44.663Z,82.93
2022-12-23T13:21:23.541Z,82.84
2022-12-23T13:24:14.919Z,83.08
2022-12-23T13:27:16.669Z,82.67
2022-12-23T13:29:43.490Z,82.57
2022-12-23T13:32:24.399Z,82.46
2022-12-23T13:35:25.332Z,82.80
2022-12-23T13:38:33.812Z,82.74
2022-12-23T13:41:28.003Z,82.79
2022-12-23T13:44:01.909Z,83.08
2022-12-23T13:46:34.918Z,82.78
2022-12-23T13:49:10.336Z,82.73
2022-12-23T13:52:09.190Z,82.72
2022-12-23T13:55:08.701Z,82.98
2022-12-23T13:57:56.944Z,82.91
2022-12-23T14:00:25.262Z,82.48
2022-12-23T14:03:17.157Z,82.90
2022-12-23T14:05:46.527Z,82.92
2022-12-23T14:08:19.128Z,83.40
2022-12-23T14:10:56.497Z,83.13
2022-12-23T14:13:30.025Z,83.30
2022-12-23T14:16:13.390Z,83.15
2022-12-23T14:18:59.256Z,83.38
2022-12-23T14:21:48.519Z,82.91
2022-12-23T14:24:34.045Z,83.36
2022-12-23T14:27:13.091Z,83.54
2022-12-23T14:29:43.035Z,83.59
2022-12-23T14:32:28.041Z,83.40
2022-12-23T14:35:17.917Z,83.59
2022-12-23T14:38:22.391Z,83.52
2022-12-23T14:40:56.888Z,83.48
2022-12-23T14:43:25.380Z,83.88
2022-12-23T14:45:58.102Z,83.53
2022-12-23T14:48:37.094Z,83.61
2022-12-23T14:51:10.131Z,83.50
2022-12-23T14:53:57.765Z,83.70
2022-12-23T14:56:47.534Z,83.75
2022-12-23T14:59:27.112Z,83.78
2022-12-23T15:02:17.087Z,84.21
2022-12-23T15:04:49.370Z,83.74
2022-12-23T15:07:38.090Z,84.04
2022-12-23T15:10:26.309Z,83.94
2022-12-23T15:12:56.965Z,83.86
2022-12-23T15:15:27.048Z,83.80
2022-12-23T15:18:10.759Z,84.23
2022-12-23T15:20:37.687Z,83.98
2022-12-23T15:23:14.436Z,84.09
2022-12-23T15:25:45.800Z,84.20
2022-12-23T15:28:21.774Z,84.14
2022-12-23T15:30:52.383Z,84.46
2022-12-23T15:34:00.891Z,84.35
2022-12-23T15:36:10.818Z,84.31
2022-12-23T15:38:39.226Z,84.51
2022-12-23T15:41:15.408Z,84.35
2022-12-23T15:43:43.587Z,84.45
2022-12-23T15:46:28.671Z,84.44
2022-12-23T15:48:57.289Z,84.35
2022-12-23T15:51:57.732Z,84.76
2022-12-23T15:54:22.011Z,84.57
2022-12-23T15:56:52.266Z,84.30
2022-12-23T15:59:29.544Z,84.79
2022-12-23T16:01:56.770Z,84.50
2022-12-23T16:04:29.245Z,84.89
2022-12-23T16:06:56.429Z,84.63
2022-12-23T16:09:31.841Z,84.74
2022-12-23T16:12:02.175Z,84.47
2022-12-23T16:14:35.036Z,84.76
2022-12-23T16:17:12.965Z,84.48
2022-12-23T16:19:53.007Z,84.64
2022-12-23T16:22:36.277Z,84.41
2022-12-23T16:25:32.878Z,84.50
2022-12-23T16:28:04.844Z,84.67
2022-12-23T16:30:37.194Z,84.75
2022-12-23T16:33:25.563Z,84.66
2022-12-23T16:35:54.582Z,84.78
2022-12-23T16:38:26.749Z,84.70
2022-12-23T16:40:56.217Z,84.69
2022-12-23T16:43:25.110Z,84.81
2022-12-23T16:45:55.261Z,85.01
2022-12-23T16:48:35.341Z,84.72
2022-12-23T16:51:06.118Z,85.00
2022-12-23T16:53:32.889Z,85.04
2022-12-23T16:56:01.109Z,85.12
2022-12-23T16:58:29.700Z,84.81
2022-12-23T17:00:56.725Z,84.89
2022-12-23T17:03:23.608Z,85.02
2022-12-23T17:05:50.442Z,84.92
2022-12-23T17:08:17.207Z,84.80
2022-12-23T17:10:47.475Z,84.71
2022-12-23T17:13:17.959Z,84.98
2022-12-23T17:15:45.133Z,85.23
2022-12-23T17:18:17.452Z,84.80
2022-12-23T17:20:48.270Z,84.73
2022-12-23T17:23:30.088Z,85.06
2022-12-23T17:25:57.265Z,84.97
2022-12-23T17:28:30.941Z,84.82
2022-12-23T17:30:59.011Z,84.82
2022-12-23T17:33:29.627Z,84.76
2022-12-23T17:35:56.553Z,85.25
2022-12-23T17:38:23.830Z,84.62
2022-12-23T17:40:51.226Z,84.93
2022-12-23T17:43:18.864Z,84.72
2022-12-23T17:45:47.479Z,84.85
2022-12-23T17:48:20.622Z,85.22
2022-12-23T17:50:49.231Z,85.11
2022-12-23T17:53:18.458Z,84.80
2022-12-23T17:55:45.906Z,84.76
2022-12-23T17:58:14.220Z,85.20
2022-12-23T18:00:41.264Z,84.81
2022-12-23T18:03:22.380Z,85.06
2022-12-23T18:05:49.722Z,84.71
2022-12-23T18:08:17.898Z,84.79
2022-12-23T18:10:46.030Z,84.66
2022-12-23T18:13:19.266Z,84.59
2022-12-23T18:15:46.981Z,85.15
2022-12-23T18:18:37.725Z,84.85
2022-12-23T18:21:16.183Z,84.82
2022-12-23T18:23:42.897Z,84.70
2022-12-23T18:26:15.150Z,84.98
2022-12-23T18:28:42.821Z,84.74
2022-12-23T18:31:18.686Z,84.83
2022-12-23T18:33:46.135Z,85.39
2022-12-23T18:36:20.603Z,85.35
2022-12-23T18:38:47.617Z,85.16
2022-12-23T18:41:14.364Z,85.17
2022-12-23T18:43:41.185Z,85.27
2022-12-23T18:46:08.090Z,85.07
2022-12-23T18:48:34.871Z,84.77
2022-12-23T18:51:02.918Z,84.94
2022-12-23T18:53:29.751Z,85.17
2022-12-23T18:55:56.479Z,85.04
2022-12-23T18:58:23.456Z,84.82
2022-12-23T19:00:52.801Z,84.99
2022-12-23T19:03:26.454Z,85.44
2022-12-23T19:05:55.130Z,85.25
2022-12-23T19:08:26.804Z,85.30
2022-12-23T19:10:55.136Z,85.17
2022-12-23T19:13:22.131Z,85.06
2022-12-23T19:15:48.951Z,84.68
2022-12-23T19:18:18.875Z,85.08
2022-12-23T19:20:46.857Z,85.24
2022-12-23T19:23:14.795Z,85.18
2022-12-23T19:25:44.213Z,85.05
2022-12-23T19:28:13.179Z,85.04
2022-12-23T19:30:41.719Z,85.12
2022-12-23T19:33:09.299Z,84.69
2022-12-23T19:35:36.782Z,85.10
2022-12-23T19:38:04.067Z,84.99
2022-12-23T19:40:31.961Z,84.75
2022-12-23T19:42:58.899Z,84.76
2022-12-23T19:45:25.521Z,85.26
2022-12-23T19:47:53.311Z,84.86
2022-12-23T19:50:22.331Z,85.23
2022-12-23T19:52:50.211Z,85.24
2022-12-23T19:55:16.951Z,85.39
2022-12-23T19:57:43.913Z,85.06
2022-12-23T20:00:11.121Z,85.20
2022-12-23T20:02:38.212Z,85.13
2022-12-23T20:05:05.662Z,85.20
2022-12-23T20:07:32.331Z,85.03
2022-12-23T20:09:59.196Z,84.84
2022-12-23T20:12:27.975Z,84.88
2022-12-23T20:14:54.737Z,84.91
2022-12-23T20:17:21.513Z,85.05
2022-12-23T20:19:48.595Z,85.33
2022-12-23T20:22:15.299Z,85.19
2022-12-23T20:24:42.020Z,84.96
2022-12-23T20:27:11.996Z,85.20
2022-12-23T20:29:39.881Z,84.87
2022-12-23T20:32:06.668Z,85.23
2022-12-23T20:34:38.580Z,85.41
2022-12-23T20:37:06.576Z,85.07
2022-12-23T20:39:33.409Z,84.67
2022-12-23T20:42:00.133Z,85.30
2022-12-23T20:44:36.214Z,85.18
2022-12-23T20:47:05.692Z,85.03
2022-12-23T20:49:32.508Z,84.70
2022-12-23T20:51:59.338Z,85.30
2022-12-23T20:54:32.142Z,85.15
2022-12-23T20:57:00.554Z,85.29
2022-12-23T20:59:27.427Z,84.82
2022-12-23T21:01:54.213Z,85.20
2022-12-23T21:04:22.567Z,85.48
2022-12-23T21:06:49.961Z,85.20
2022-12-23T21:09:17.324Z,85.04
2022-12-23T21:11:46.541Z,85.33
2022-12-23T21:14:14.570Z,85.21
2022-12-23T21:16:41.795Z,85.32
2022-12-23T21:19:14.121Z,84.84
2022-12-23T21:21:41.130Z,84.82
2022-12-23T21:24:08.093Z,85.12
2022-12-23T21:26:35.001Z,84.84
2022-12-23T21:29:04.359Z,85.13
2022-12-23T21:31:34.123Z,84.82
2022-12-23T21:34:01.160Z,85.14
2022-12-23T21:36:31.272Z,84.96
2022-12-23T21:38:59.399Z,85.26
2022-12-23T21:41:29.124Z,84.98
2022-12-23T21:43:57.482Z,85.03
2022-12-23T21:46:25.543Z,85.25
2022-12-23T21:48:52.823Z,84.84
2022-12-23T21:51:22.506Z,85.31
2022-12-23T21:53:51.831Z,84.85
2022-12-23T21:56:24.490Z,85.29
2022-12-23T21:58:58.472Z,85.13
2022-12-23T22:01:26.063Z,85.36
2022-12-23T22:03:53.750Z,85.41
2022-12-23T22:06:23.367Z,85.41
2022-12-23T22:08:52.311Z,84.87
2022-12-23T22:11:24.932Z,85.19
2022-12-23T22:13:52.316Z,85.33
2022-12-23T22:16:22.311Z,85.14
2022-12-23T22:18:50.135Z,84.96
2022-12-23T22:21:20.210Z,85.16
2022-12-23T22:23:47.629Z,85.04
2022-12-23T22:26:22.300Z,84.97
2022-12-23T22:28:52.526Z,85.45
2022-12-23T22:31:22.321Z,85.53
2022-12-23T22:33:49.147Z,85.22
2022-12-23T22:36:17.034Z,85.29
2022-12-23T22:38:44.374Z,85.46
2022-12-23T22:41:11.175Z,85.21
2022-12-23T22:43:38.200Z,85.17
2022-12-23T22:46:05.418Z,85.07
2022-12-23T22:48:32.515Z,85.26
2022-12-23T22:51:09.738Z,85.09
2022-12-23T22:53:36.889Z,85.15
2022-12-23T22:56:05.290Z,84.94
2022-12-23T22:58:33.313Z,84.92
2022-12-23T23:01:00.818Z,84.95
2022-12-23T23:03:28.748Z,85.31
2022-12-23T23:06:01.662Z,85.42
2022-12-23T23:08:29.733Z,85.20
2022-12-23T23:11:02.323Z,85.45
2022-12-23T23:13:32.556Z,85.14
2022-12-23T23:16:00.470Z,85.02
2022-12-23T23:18:28.544Z,84.89
2022-12-23T23:20:55.665Z,84.86
2022-12-23T23:23:22.701Z,85.54
2022-12-23T23:25:49.532Z,84.84
2022-12-23T23:28:16.349Z,85.10
2022-12-23T23:30:43.049Z,85.08
2022-12-23T23:33:10.807Z,85.10
2022-12-23T23:35:37.602Z,84.92
2022-12-23T23:38:04.285Z,85.40
2022-12-23T23:40:31.417Z,85.22
2022-12-23T23:42:58.076Z,85.31
2022-12-23T23:45:24.980Z,85.27
2022-12-23T23:47:52.141Z,85.27
2022-12-23T23:50:19.027Z,85.44
2022-12-23T23:52:45.862Z,84.90
2022-12-23T23:55:12.935Z,85.15
2022-12-23T23:57:39.583Z,85.36
